Stanitsa Kanevskaya, Russia
Current Conditions -  °F | °C
As of 11:30 AM on Friday 24 Oct 2014 (Local Time) from URKK Reporting Station
Overcast Overcast  
Wind Chill: 27°   Ceiling: 600
Heat Index: 37°   Visibility: 6mi
Dew Point: 36°   Wind: 20mph
Humidity: 93%   Direction: 70°ENE
Pressure: 30.12"   Gusts: 29mph
Location:  46.07°N, 38.97°E
Report Text: URKK 240830Z 07009G13MPS 9999 OVC006 03/02 Q1020 TEMPO 1000 BRBKN004 RMK QFE762 SC065
Loading
Personal Weather Stations






























Interactive Weather Map
Tropical Storm Tracking
New forecast layout! Learn more

10-Day Weather Forecast

Advertisements
Track Severe Weather on mobile